sensor_id;sensor_type;location;lat;lon;timestamp;pressure;altitude;pressure_sealevel;temperature;humidity
84760;BME280;74983;51.084;11.086;2024-02-23T00:01:27;97094.44;;;10.77;75.88
84760;BME280;74983;51.084;11.086;2024-02-23T00:03:52;97135.28;;;10.77;75.61
84760;BME280;74983;51.084;11.086;2024-02-23T00:06:18;97130.06;;;10.77;75.94
84760;BME280;74983;51.084;11.086;2024-02-23T00:08:43;97157.38;;;10.81;75.52
84760;BME280;74983;51.084;11.086;2024-02-23T00:11:08;97181.44;;;10.68;78.06
84760;BME280;74983;51.084;11.086;2024-02-23T00:13:34;97185.22;;;10.06;82.43
84760;BME280;74983;51.084;11.086;2024-02-23T00:15:59;97195.06;;;9.73;83.30
84760;BME280;74983;51.084;11.086;2024-02-23T00:18:24;97178.97;;;9.55;82.20
84760;BME280;74983;51.084;11.086;2024-02-23T00:20:50;97196.69;;;9.52;81.41
84760;BME280;74983;51.084;11.086;2024-02-23T00:23:15;97192.53;;;9.35;82.07
84760;BME280;74983;51.084;11.086;2024-02-23T00:25:41;97197.47;;;9.22;81.96
84760;BME280;74983;51.084;11.086;2024-02-23T00:28:06;97200.75;;;9.16;81.96
84760;BME280;74983;51.084;11.086;2024-02-23T00:30:32;97221.09;;;9.04;82.28
84760;BME280;74983;51.084;11.086;2024-02-23T00:32:57;97226.50;;;8.86;82.94
84760;BME280;74983;51.084;11.086;2024-02-23T00:35:23;97219.88;;;8.76;83.52
84760;BME280;74983;51.084;11.086;2024-02-23T00:37:48;97233.84;;;8.67;83.33
84760;BME280;74983;51.084;11.086;2024-02-23T00:40:13;97249.75;;;8.56;84.34
84760;BME280;74983;51.084;11.086;2024-02-23T00:42:38;97257.88;;;8.45;84.45
84760;BME280;74983;51.084;11.086;2024-02-23T00:45:04;97254.47;;;8.44;83.57
84760;BME280;74983;51.084;11.086;2024-02-23T00:47:30;97261.75;;;8.57;82.71
84760;BME280;74983;51.084;11.086;2024-02-23T00:49:55;97275.31;;;8.83;80.23
84760;BME280;74983;51.084;11.086;2024-02-23T00:52:20;97296.22;;;8.89;79.69
84760;BME280;74983;51.084;11.086;2024-02-23T00:54:45;97274.00;;;9.03;77.34
84760;BME280;74983;51.084;11.086;2024-02-23T00:57:10;97293.34;;;9.31;75.47
84760;BME280;74983;51.084;11.086;2024-02-23T00:59:36;97285.25;;;9.26;75.16
84760;BME280;74983;51.084;11.086;2024-02-23T01:02:01;97297.72;;;9.39;70.46
84760;BME280;74983;51.084;11.086;2024-02-23T01:04:26;97275.94;;;9.48;69.49
84760;BME280;74983;51.084;11.086;2024-02-23T01:06:52;97318.38;;;9.32;70.77
84760;BME280;74983;51.084;11.086;2024-02-23T01:09:17;97316.94;;;9.22;73.33
84760;BME280;74983;51.084;11.086;2024-02-23T01:11:46;97314.38;;;9.05;73.94
84760;BME280;74983;51.084;11.086;2024-02-23T01:14:11;97332.88;;;8.94;74.83
84760;BME280;74983;51.084;11.086;2024-02-23T01:16:36;97355.13;;;8.89;76.80
84760;BME280;74983;51.084;11.086;2024-02-23T01:19:02;97363.88;;;8.72;79.44
84760;BME280;74983;51.084;11.086;2024-02-23T01:21:28;97361.28;;;8.48;79.41
84760;BME280;74983;51.084;11.086;2024-02-23T01:23:53;97366.44;;;8.24;79.23
84760;BME280;74983;51.084;11.086;2024-02-23T01:26:18;97364.94;;;8.13;79.62
84760;BME280;74983;51.084;11.086;2024-02-23T01:28:44;97379.66;;;8.13;79.40
84760;BME280;74983;51.084;11.086;2024-02-23T01:31:11;97389.19;;;8.04;80.10
84760;BME280;74983;51.084;11.086;2024-02-23T01:33:37;97395.97;;;7.97;80.46
84760;BME280;74983;51.084;11.086;2024-02-23T01:36:04;97398.41;;;7.98;79.86
84760;BME280;74983;51.084;11.086;2024-02-23T01:38:30;97407.00;;;7.99;80.60
84760;BME280;74983;51.084;11.086;2024-02-23T01:40:57;97402.63;;;7.99;81.17
84760;BME280;74983;51.084;11.086;2024-02-23T01:43:22;97413.97;;;7.98;81.39
84760;BME280;74983;51.084;11.086;2024-02-23T01:45:48;97430.16;;;8.00;81.64
84760;BME280;74983;51.084;11.086;2024-02-23T01:48:13;97420.47;;;8.02;81.86
84760;BME280;74983;51.084;11.086;2024-02-23T01:50:39;97424.72;;;8.12;80.56
84760;BME280;74983;51.084;11.086;2024-02-23T01:53:04;97426.16;;;8.06;80.71
84760;BME280;74983;51.084;11.086;2024-02-23T01:55:30;97441.25;;;8.19;78.46
84760;BME280;74983;51.084;11.086;2024-02-23T01:57:57;97432.41;;;8.29;76.35
84760;BME280;74983;51.084;11.086;2024-02-23T02:00:22;97447.53;;;8.42;75.72
84760;BME280;74983;51.084;11.086;2024-02-23T02:02:48;97462.28;;;8.49;74.68
84760;BME280;74983;51.084;11.086;2024-02-23T02:05:14;97451.59;;;8.52;73.49
84760;BME280;74983;51.084;11.086;2024-02-23T02:07:43;97451.75;;;8.59;71.87
84760;BME280;74983;51.084;11.086;2024-02-23T02:10:09;97478.03;;;8.56;71.57
84760;BME280;74983;51.084;11.086;2024-02-23T02:12:35;97462.16;;;8.59;70.18
84760;BME280;74983;51.084;11.086;2024-02-23T02:15:01;97457.25;;;8.48;71.28
84760;BME280;74983;51.084;11.086;2024-02-23T02:17:29;97483.84;;;8.16;75.77
84760;BME280;74983;51.084;11.086;2024-02-23T02:19:54;97495.66;;;7.77;80.08
84760;BME280;74983;51.084;11.086;2024-02-23T02:22:19;97482.81;;;7.42;81.83
84760;BME280;74983;51.084;11.086;2024-02-23T02:24:45;97475.19;;;7.15;81.99
84760;BME280;74983;51.084;11.086;2024-02-23T02:27:12;97507.84;;;6.80;84.34
84760;BME280;74983;51.084;11.086;2024-02-23T02:29:37;97520.03;;;6.70;84.41
84760;BME280;74983;51.084;11.086;2024-02-23T02:32:02;97531.63;;;6.66;84.65
84760;BME280;74983;51.084;11.086;2024-02-23T02:34:28;97516.56;;;6.62;83.99
84760;BME280;74983;51.084;11.086;2024-02-23T02:36:54;97532.38;;;6.59;83.58
84760;BME280;74983;51.084;11.086;2024-02-23T02:39:19;97538.84;;;6.63;84.65
84760;BME280;74983;51.084;11.086;2024-02-23T02:41:45;97544.63;;;6.57;87.03
84760;BME280;74983;51.084;11.086;2024-02-23T02:44:10;97544.44;;;6.41;86.28
84760;BME280;74983;51.084;11.086;2024-02-23T02:46:35;97552.19;;;6.41;85.40
84760;BME280;74983;51.084;11.086;2024-02-23T02:49:01;97566.94;;;6.31;86.18
84760;BME280;74983;51.084;11.086;2024-02-23T02:51:26;97570.78;;;6.17;86.92
84760;BME280;74983;51.084;11.086;2024-02-23T02:53:51;97577.47;;;6.10;87.07
84760;BME280;74983;51.084;11.086;2024-02-23T02:56:16;97581.59;;;6.03;87.35
84760;BME280;74983;51.084;11.086;2024-02-23T02:58:42;97588.28;;;5.96;87.92
84760;BME280;74983;51.084;11.086;2024-02-23T03:01:07;97590.88;;;5.87;87.56
84760;BME280;74983;51.084;11.086;2024-02-23T03:03:33;97590.72;;;5.79;88.38
84760;BME280;74983;51.084;11.086;2024-02-23T03:05:58;97596.97;;;5.76;88.15
84760;BME280;74983;51.084;11.086;2024-02-23T03:08:23;97601.44;;;5.74;87.81
84760;BME280;74983;51.084;11.086;2024-02-23T03:10:49;97603.34;;;5.82;86.19
84760;BME280;74983;51.084;11.086;2024-02-23T03:13:14;97601.59;;;6.01;85.60
84760;BME280;74983;51.084;11.086;2024-02-23T03:15:39;97608.22;;;6.04;85.85
84760;BME280;74983;51.084;11.086;2024-02-23T03:18:05;97619.91;;;6.08;84.73
84760;BME280;74983;51.084;11.086;2024-02-23T03:20:30;97627.28;;;6.03;84.41
84760;BME280;74983;51.084;11.086;2024-02-23T03:22:55;97623.72;;;6.04;83.55
84760;BME280;74983;51.084;11.086;2024-02-23T03:25:21;97636.63;;;6.04;83.62
84760;BME280;74983;51.084;11.086;2024-02-23T03:27:46;97632.44;;;6.03;83.65
84760;BME280;74983;51.084;11.086;2024-02-23T03:30:11;97634.88;;;6.04;83.34
84760;BME280;74983;51.084;11.086;2024-02-23T03:32:36;97638.69;;;6.00;83.19
84760;BME280;74983;51.084;11.086;2024-02-23T03:35:03;97649.31;;;5.97;83.20
84760;BME280;74983;51.084;11.086;2024-02-23T03:37:29;97653.53;;;5.89;83.33
84760;BME280;74983;51.084;11.086;2024-02-23T03:39:54;97663.03;;;5.79;84.04
84760;BME280;74983;51.084;11.086;2024-02-23T03:42:19;97662.34;;;5.77;82.69
84760;BME280;74983;51.084;11.086;2024-02-23T03:44:45;97660.16;;;5.82;82.11
84760;BME280;74983;51.084;11.086;2024-02-23T03:47:10;97664.81;;;5.97;81.20
84760;BME280;74983;51.084;11.086;2024-02-23T03:49:35;97669.28;;;6.05;81.13
84760;BME280;74983;51.084;11.086;2024-02-23T03:52:00;97669.94;;;6.07;79.87
84760;BME280;74983;51.084;11.086;2024-02-23T03:54:26;97679.19;;;6.09;80.89
84760;BME280;74983;51.084;11.086;2024-02-23T03:56:52;97685.88;;;6.12;80.23
84760;BME280;74983;51.084;11.086;2024-02-23T03:59:17;97693.88;;;6.18;79.70
84760;BME280;74983;51.084;11.086;2024-02-23T04:01:42;97709.09;;;6.21;80.42
84760;BME280;74983;51.084;11.086;2024-02-23T04:04:07;97713.03;;;6.16;79.66
84760;BME280;74983;51.084;11.086;2024-02-23T04:06:36;97706.22;;;6.34;79.36
84760;BME280;74983;51.084;11.086;2024-02-23T04:09:01;97710.41;;;6.44;79.92
84760;BME280;74983;51.084;11.086;2024-02-23T04:11:29;97721.28;;;6.48;80.41
84760;BME280;74983;51.084;11.086;2024-02-23T04:13:55;97735.84;;;6.58;80.19
84760;BME280;74983;51.084;11.086;2024-02-23T04:16:23;97748.22;;;6.55;80.80
84760;BME280;74983;51.084;11.086;2024-02-23T04:18:48;97762.97;;;5.97;85.45
84760;BME280;74983;51.084;11.086;2024-02-23T04:21:14;97766.72;;;5.64;85.27
84760;BME280;74983;51.084;11.086;2024-02-23T04:23:40;97760.56;;;5.46;86.18
84760;BME280;74983;51.084;11.086;2024-02-23T04:26:08;97773.00;;;5.32;86.68
84760;BME280;74983;51.084;11.086;2024-02-23T04:28:34;97768.75;;;5.21;87.58
84760;BME280;74983;51.084;11.086;2024-02-23T04:30:59;97777.31;;;5.12;87.77
84760;BME280;74983;51.084;11.086;2024-02-23T04:33:35;97774.88;;;5.11;87.30
84760;BME280;74983;51.084;11.086;2024-02-23T04:36:01;97780.03;;;5.11;87.16
84760;BME280;74983;51.084;11.086;2024-02-23T04:38:31;97786.25;;;5.08;87.36
84760;BME280;74983;51.084;11.086;2024-02-23T04:40:57;97775.09;;;5.08;87.23
84760;BME280;74983;51.084;11.086;2024-02-23T04:43:24;97785.41;;;5.08;86.72
84760;BME280;74983;51.084;11.086;2024-02-23T04:45:50;97798.59;;;5.05;86.46
84760;BME280;74983;51.084;11.086;2024-02-23T04:48:15;97781.72;;;5.01;87.24
84760;BME280;74983;51.084;11.086;2024-02-23T04:50:40;97801.38;;;4.92;87.19
84760;BME280;74983;51.084;11.086;2024-02-23T04:53:06;97802.31;;;4.91;87.25
84760;BME280;74983;51.084;11.086;2024-02-23T04:55:31;97807.16;;;4.85;87.28
84760;BME280;74983;51.084;11.086;2024-02-23T04:57:56;97808.25;;;4.82;87.39
84760;BME280;74983;51.084;11.086;2024-02-23T05:00:22;97813.09;;;4.76;87.65
84760;BME280;74983;51.084;11.086;2024-02-23T05:02:47;97821.16;;;4.62;88.14
84760;BME280;74983;51.084;11.086;2024-02-23T05:05:13;97825.59;;;4.39;88.92
84760;BME280;74983;51.084;11.086;2024-02-23T05:07:38;97829.53;;;4.22;88.85
84760;BME280;74983;51.084;11.086;2024-02-23T05:10:04;97827.88;;;4.01;89.09
84760;BME280;74983;51.084;11.086;2024-02-23T05:12:29;97831.63;;;3.97;89.41
84760;BME280;74983;51.084;11.086;2024-02-23T05:14:54;97841.34;;;3.93;89.63
84760;BME280;74983;51.084;11.086;2024-02-23T05:17:20;97844.50;;;3.97;89.72
84760;BME280;74983;51.084;11.086;2024-02-23T05:19:45;97844.00;;;4.03;89.40
84760;BME280;74983;51.084;11.086;2024-02-23T05:22:11;97846.53;;;4.66;83.29
84760;BME280;74983;51.084;11.086;2024-02-23T05:24:36;97852.34;;;5.09;80.20
84760;BME280;74983;51.084;11.086;2024-02-23T05:27:02;97863.66;;;5.18;80.04
84760;BME280;74983;51.084;11.086;2024-02-23T05:29:28;97867.22;;;5.17;80.47
84760;BME280;74983;51.084;11.086;2024-02-23T05:31:53;97866.50;;;5.15;79.78
84760;BME280;74983;51.084;11.086;2024-02-23T05:34:18;97859.88;;;5.12;80.40
84760;BME280;74983;51.084;11.086;2024-02-23T05:36:44;97852.88;;;5.03;80.68
84760;BME280;74983;51.084;11.086;2024-02-23T05:39:11;97851.75;;;4.96;81.14
84760;BME280;74983;51.084;11.086;2024-02-23T05:41:37;97870.56;;;4.87;82.49
84760;BME280;74983;51.084;11.086;2024-02-23T05:44:04;97876.78;;;4.85;81.86
84760;BME280;74983;51.084;11.086;2024-02-23T05:46:33;97884.84;;;4.91;81.49
84760;BME280;74983;51.084;11.086;2024-02-23T05:48:59;97876.25;;;4.81;81.83
84760;BME280;74983;51.084;11.086;2024-02-23T05:51:24;97882.63;;;4.87;80.78
84760;BME280;74983;51.084;11.086;2024-02-23T05:53:49;97877.13;;;4.91;80.51
84760;BME280;74983;51.084;11.086;2024-02-23T05:56:15;97888.91;;;4.94;80.81
84760;BME280;74983;51.084;11.086;2024-02-23T05:58:41;97888.13;;;4.93;80.25
84760;BME280;74983;51.084;11.086;2024-02-23T06:01:06;97886.78;;;4.99;79.92
84760;BME280;74983;51.084;11.086;2024-02-23T06:03:32;97887.88;;;4.96;80.51
84760;BME280;74983;51.084;11.086;2024-02-23T06:05:57;97888.13;;;4.93;80.66
84760;BME280;74983;51.084;11.086;2024-02-23T06:08:23;97886.78;;;4.99;81.32
84760;BME280;74983;51.084;11.086;2024-02-23T06:10:48;97889.00;;;5.03;80.63
84760;BME280;74983;51.084;11.086;2024-02-23T06:13:13;97901.50;;;5.08;81.17
84760;BME280;74983;51.084;11.086;2024-02-23T06:15:39;97888.81;;;5.16;80.82
84760;BME280;74983;51.084;11.086;2024-02-23T06:18:04;97887.09;;;5.26;80.61
84760;BME280;74983;51.084;11.086;2024-02-23T06:20:30;97897.97;;;5.29;79.20
84760;BME280;74983;51.084;11.086;2024-02-23T06:22:55;97892.72;;;5.40;79.53
84760;BME280;74983;51.084;11.086;2024-02-23T06:25:21;97897.91;;;5.50;78.45
84760;BME280;74983;51.084;11.086;2024-02-23T06:27:46;97898.22;;;5.56;78.39
84760;BME280;74983;51.084;11.086;2024-02-23T06:30:11;97899.03;;;5.57;77.75
84760;BME280;74983;51.084;11.086;2024-02-23T06:32:37;97909.66;;;5.63;77.13
84760;BME280;74983;51.084;11.086;2024-02-23T06:35:02;97907.47;;;5.59;76.69
84760;BME280;74983;51.084;11.086;2024-02-23T06:37:28;97908.94;;;5.52;77.91
84760;BME280;74983;51.084;11.086;2024-02-23T06:39:53;97908.88;;;5.42;77.94
84760;BME280;74983;51.084;11.086;2024-02-23T06:42:20;97905.72;;;5.29;78.15
84760;BME280;74983;51.084;11.086;2024-02-23T06:44:45;97919.19;;;5.12;78.03
84760;BME280;74983;51.084;11.086;2024-02-23T06:47:11;97931.66;;;5.07;78.86
84760;BME280;74983;51.084;11.086;2024-02-23T06:49:37;97928.56;;;4.93;79.73
84760;BME280;74983;51.084;11.086;2024-02-23T06:52:02;97931.19;;;4.82;80.52
84760;BME280;74983;51.084;11.086;2024-02-23T06:54:28;97943.88;;;4.74;81.01
84760;BME280;74983;51.084;11.086;2024-02-23T06:56:53;97952.09;;;4.68;81.13
84760;BME280;74983;51.084;11.086;2024-02-23T06:59:19;97962.81;;;4.63;81.43
84760;BME280;74983;51.084;11.086;2024-02-23T07:01:50;97972.78;;;4.56;82.18
84760;BME280;74983;51.084;11.086;2024-02-23T07:04:16;97971.13;;;4.55;82.52
84760;BME280;74983;51.084;11.086;2024-02-23T07:06:41;97973.22;;;4.62;81.94
84760;BME280;74983;51.084;11.086;2024-02-23T07:09:06;97969.09;;;4.70;81.79
84760;BME280;74983;51.084;11.086;2024-02-23T07:11:31;97972.19;;;4.85;80.73
84760;BME280;74983;51.084;11.086;2024-02-23T07:13:57;97971.97;;;4.88;80.65
84760;BME280;74983;51.084;11.086;2024-02-23T07:16:22;97964.97;;;4.99;79.92
84760;BME280;74983;51.084;11.086;2024-02-23T07:18:47;97968.34;;;5.11;79.64
84760;BME280;74983;51.084;11.086;2024-02-23T07:21:12;97971.66;;;5.22;78.75
84760;BME280;74983;51.084;11.086;2024-02-23T07:23:38;97963.41;;;5.28;78.56
84760;BME280;74983;51.084;11.086;2024-02-23T07:26:03;97965.75;;;5.31;77.74
84760;BME280;74983;51.084;11.086;2024-02-23T07:28:28;97973.50;;;5.31;77.57
84760;BME280;74983;51.084;11.086;2024-02-23T07:30:54;97977.97;;;5.29;76.59
84760;BME280;74983;51.084;11.086;2024-02-23T07:33:19;97974.75;;;5.37;76.84
84760;BME280;74983;51.084;11.086;2024-02-23T07:35:44;97970.03;;;5.42;76.26
84760;BME280;74983;51.084;11.086;2024-02-23T07:38:09;97967.75;;;5.48;75.58
84760;BME280;74983;51.084;11.086;2024-02-23T07:40:35;97975.78;;;5.55;75.69
84760;BME280;74983;51.084;11.086;2024-02-23T07:43:00;97980.47;;;5.61;75.14
84760;BME280;74983;51.084;11.086;2024-02-23T07:45:25;97978.03;;;5.69;74.48
84760;BME280;74983;51.084;11.086;2024-02-23T07:47:51;97972.75;;;5.70;74.24
84760;BME280;74983;51.084;11.086;2024-02-23T07:50:16;97989.63;;;5.74;74.06
84760;BME280;74983;51.084;11.086;2024-02-23T07:52:43;97999.81;;;5.76;73.77
84760;BME280;74983;51.084;11.086;2024-02-23T07:55:09;97992.22;;;5.74;74.56
84760;BME280;74983;51.084;11.086;2024-02-23T07:57:34;97976.66;;;5.86;73.90
84760;BME280;74983;51.084;11.086;2024-02-23T08:00:00;97975.88;;;5.95;73.28
84760;BME280;74983;51.084;11.086;2024-02-23T08:02:25;97977.94;;;6.01;71.73
84760;BME280;74983;51.084;11.086;2024-02-23T08:04:51;97978.63;;;6.03;73.09
84760;BME280;74983;51.084;11.086;2024-02-23T08:07:17;97980.66;;;5.99;72.40
84760;BME280;74983;51.084;11.086;2024-02-23T08:09:42;97989.09;;;6.01;72.75
84760;BME280;74983;51.084;11.086;2024-02-23T08:12:08;97986.81;;;6.08;72.67
84760;BME280;74983;51.084;11.086;2024-02-23T08:14:33;97976.34;;;6.09;73.27
84760;BME280;74983;51.084;11.086;2024-02-23T08:16:58;97966.28;;;6.06;71.50
84760;BME280;74983;51.084;11.086;2024-02-23T08:19:24;97969.28;;;6.11;69.69
84760;BME280;74983;51.084;11.086;2024-02-23T08:21:49;97958.28;;;6.19;68.64
84760;BME280;74983;51.084;11.086;2024-02-23T08:24:15;97988.63;;;6.17;69.42
84760;BME280;74983;51.084;11.086;2024-02-23T08:26:40;97978.00;;;6.20;68.24
84760;BME280;74983;51.084;11.086;2024-02-23T08:29:06;97988.47;;;6.18;69.31
84760;BME280;74983;51.084;11.086;2024-02-23T08:31:31;98004.69;;;6.20;69.34
84760;BME280;74983;51.084;11.086;2024-02-23T08:33:56;98007.13;;;6.22;68.90
84760;BME280;74983;51.084;11.086;2024-02-23T08:36:22;98005.50;;;6.30;70.01
84760;BME280;74983;51.084;11.086;2024-02-23T08:38:47;98001.88;;;6.42;69.20
84760;BME280;74983;51.084;11.086;2024-02-23T08:41:12;98017.25;;;6.44;70.03
84760;BME280;74983;51.084;11.086;2024-02-23T08:43:38;98019.03;;;6.53;69.62
84760;BME280;74983;51.084;11.086;2024-02-23T08:46:03;98025.88;;;6.63;68.90
84760;BME280;74983;51.084;11.086;2024-02-23T08:48:28;98030.66;;;6.77;68.14
84760;BME280;74983;51.084;11.086;2024-02-23T08:50:53;98030.78;;;6.85;68.13
84760;BME280;74983;51.084;11.086;2024-02-23T08:53:19;98036.81;;;6.96;67.98
84760;BME280;74983;51.084;11.086;2024-02-23T08:55:44;98037.63;;;6.96;67.53
84760;BME280;74983;51.084;11.086;2024-02-23T08:58:10;98026.34;;;6.97;66.41
84760;BME280;74983;51.084;11.086;2024-02-23T09:00:35;98031.09;;;7.11;67.85
84760;BME280;74983;51.084;11.086;2024-02-23T09:03:02;98024.84;;;7.23;66.87
84760;BME280;74983;51.084;11.086;2024-02-23T09:05:27;98034.22;;;7.24;66.63
84760;BME280;74983;51.084;11.086;2024-02-23T09:07:53;98034.88;;;7.36;66.46
84760;BME280;74983;51.084;11.086;2024-02-23T09:10:18;98038.72;;;7.41;66.94
84760;BME280;74983;51.084;11.086;2024-02-23T09:12:43;98040.63;;;7.39;67.21
84760;BME280;74983;51.084;11.086;2024-02-23T09:15:09;98051.81;;;7.49;67.07
84760;BME280;74983;51.084;11.086;2024-02-23T09:17:34;98058.31;;;7.63;66.32
84760;BME280;74983;51.084;11.086;2024-02-23T09:19:59;98053.94;;;7.73;65.29
84760;BME280;74983;51.084;11.086;2024-02-23T09:22:24;98060.97;;;7.90;63.99
84760;BME280;74983;51.084;11.086;2024-02-23T09:24:50;98058.41;;;7.90;63.43
84760;BME280;74983;51.084;11.086;2024-02-23T09:27:15;98069.38;;;8.21;63.89
84760;BME280;74983;51.084;11.086;2024-02-23T09:29:41;98059.84;;;8.12;61.83
84760;BME280;74983;51.084;11.086;2024-02-23T09:32:07;98054.22;;;8.16;62.07
84760;BME280;74983;51.084;11.086;2024-02-23T09:34:32;98061.47;;;8.13;63.43
84760;BME280;74983;51.084;11.086;2024-02-23T09:36:57;98070.91;;;8.14;61.85
84760;BME280;74983;51.084;11.086;2024-02-23T09:39:23;98061.22;;;8.06;62.29
84760;BME280;74983;51.084;11.086;2024-02-23T09:41:51;98066.09;;;8.19;63.00
84760;BME280;74983;51.084;11.086;2024-02-23T09:44:18;98070.19;;;8.31;63.72
84760;BME280;74983;51.084;11.086;2024-02-23T09:46:43;98077.28;;;8.19;64.96
84760;BME280;74983;51.084;11.086;2024-02-23T09:49:11;98068.00;;;8.17;63.52
84760;BME280;74983;51.084;11.086;2024-02-23T09:51:36;98074.72;;;8.10;62.95
84760;BME280;74983;51.084;11.086;2024-02-23T09:54:02;98078.91;;;8.20;61.96
84760;BME280;74983;51.084;11.086;2024-02-23T09:56:28;98079.34;;;8.25;62.54
84760;BME280;74983;51.084;11.086;2024-02-23T09:59:01;98071.13;;;8.20;60.31
84760;BME280;74983;51.084;11.086;2024-02-23T10:01:31;98076.97;;;8.32;63.03
84760;BME280;74983;51.084;11.086;2024-02-23T10:03:58;98077.81;;;8.32;60.80
84760;BME280;74983;51.084;11.086;2024-02-23T10:06:27;98078.31;;;8.45;62.82
84760;BME280;74983;51.084;11.086;2024-02-23T10:08:53;98075.00;;;8.53;60.37
84760;BME280;74983;51.084;11.086;2024-02-23T10:11:21;98076.34;;;8.57;62.06
84760;BME280;74983;51.084;11.086;2024-02-23T10:13:48;98078.50;;;8.61;63.63
84760;BME280;74983;51.084;11.086;2024-02-23T10:16:17;98079.91;;;8.56;62.35
84760;BME280;74983;51.084;11.086;2024-02-23T10:18:42;98073.41;;;8.42;61.92
84760;BME280;74983;51.084;11.086;2024-02-23T10:21:10;98080.09;;;8.35;60.85
84760;BME280;74983;51.084;11.086;2024-02-23T10:23:38;98075.59;;;8.37;60.34
84760;BME280;74983;51.084;11.086;2024-02-23T10:26:07;98082.59;;;8.64;62.64
84760;BME280;74983;51.084;11.086;2024-02-23T10:28:34;98081.81;;;8.54;61.85
84760;BME280;74983;51.084;11.086;2024-02-23T10:31:00;98082.16;;;8.68;62.68
84760;BME280;74983;51.084;11.086;2024-02-23T10:33:26;98082.28;;;8.94;60.58
84760;BME280;74983;51.084;11.086;2024-02-23T10:35:56;98087.38;;;8.86;60.68
84760;BME280;74983;51.084;11.086;2024-02-23T10:38:23;98085.97;;;8.91;60.77
84760;BME280;74983;51.084;11.086;2024-02-23T10:40:50;98079.25;;;9.16;61.82
84760;BME280;74983;51.084;11.086;2024-02-23T10:43:19;98073.63;;;9.03;60.45
84760;BME280;74983;51.084;11.086;2024-02-23T10:45:46;98068.66;;;9.09;61.56
84760;BME280;74983;51.084;11.086;2024-02-23T10:48:11;98074.91;;;8.89;60.14
84760;BME280;74983;51.084;11.086;2024-02-23T10:50:37;98079.03;;;8.92;58.48
84760;BME280;74983;51.084;11.086;2024-02-23T10:53:07;98077.13;;;9.12;58.36
84760;BME280;74983;51.084;11.086;2024-02-23T10:55:36;98076.47;;;9.27;58.40
84760;BME280;74983;51.084;11.086;2024-02-23T10:58:02;98077.75;;;9.13;58.57
84760;BME280;74983;51.084;11.086;2024-02-23T11:00:28;98088.59;;;9.09;60.54
84760;BME280;74983;51.084;11.086;2024-02-23T11:02:54;98083.22;;;9.38;60.46
84760;BME280;74983;51.084;11.086;2024-02-23T11:05:20;98083.50;;;9.35;59.50
84760;BME280;74983;51.084;11.086;2024-02-23T11:07:46;98082.19;;;9.48;58.57
84760;BME280;74983;51.084;11.086;2024-02-23T11:10:16;98081.13;;;9.59;58.79
84760;BME280;74983;51.084;11.086;2024-02-23T11:12:43;98076.81;;;9.67;57.50
84760;BME280;74983;51.084;11.086;2024-02-23T11:15:08;98080.56;;;9.73;55.63
84760;BME280;74983;51.084;11.086;2024-02-23T11:17:35;98087.63;;;9.63;55.63
84760;BME280;74983;51.084;11.086;2024-02-23T11:20:03;98080.16;;;9.60;55.22
84760;BME280;74983;51.084;11.086;2024-02-23T11:22:35;98079.56;;;9.91;52.70
84760;BME280;74983;51.084;11.086;2024-02-23T11:25:05;98093.63;;;9.81;52.99
84760;BME280;74983;51.084;11.086;2024-02-23T11:27:31;98092.03;;;9.62;54.37
84760;BME280;74983;51.084;11.086;2024-02-23T11:30:05;98095.06;;;9.58;53.29
84760;BME280;74983;51.084;11.086;2024-02-23T11:32:46;98095.22;;;9.39;53.94
84760;BME280;74983;51.084;11.086;2024-02-23T11:35:14;98095.19;;;9.91;55.20
84760;BME280;74983;51.084;11.086;2024-02-23T11:37:53;98087.88;;;9.95;55.04
84760;BME280;74983;51.084;11.086;2024-02-23T11:40:25;98102.81;;;9.50;53.07
84760;BME280;74983;51.084;11.086;2024-02-23T11:42:50;98097.13;;;9.72;55.30
84760;BME280;74983;51.084;11.086;2024-02-23T11:45:16;98095.63;;;9.69;56.04
84760;BME280;74983;51.084;11.086;2024-02-23T11:47:41;98099.38;;;9.67;53.97
84760;BME280;74983;51.084;11.086;2024-02-23T11:50:08;98097.00;;;9.56;56.27
84760;BME280;74983;51.084;11.086;2024-02-23T11:52:34;98105.63;;;9.39;55.35
84760;BME280;74983;51.084;11.086;2024-02-23T11:54:59;98099.22;;;9.51;54.32
84760;BME280;74983;51.084;11.086;2024-02-23T11:57:25;98095.84;;;9.33;56.31
84760;BME280;74983;51.084;11.086;2024-02-23T11:59:51;98085.03;;;9.28;56.74
84760;BME280;74983;51.084;11.086;2024-02-23T12:02:17;98081.81;;;9.26;57.06
84760;BME280;74983;51.084;11.086;2024-02-23T12:04:42;98088.41;;;9.38;56.07
84760;BME280;74983;51.084;11.086;2024-02-23T12:07:08;98080.31;;;9.58;58.66
84760;BME280;74983;51.084;11.086;2024-02-23T12:09:33;98079.41;;;9.50;57.55
84760;BME280;74983;51.084;11.086;2024-02-23T12:11:58;98075.19;;;9.31;56.73
84760;BME280;74983;51.084;11.086;2024-02-23T12:14:24;98076.75;;;9.06;56.85
84760;BME280;74983;51.084;11.086;2024-02-23T12:16:51;98075.41;;;9.02;55.69
84760;BME280;74983;51.084;11.086;2024-02-23T12:19:16;98080.50;;;9.12;57.35
84760;BME280;74983;51.084;11.086;2024-02-23T12:21:45;98070.81;;;9.14;56.32
84760;BME280;74983;51.084;11.086;2024-02-23T12:24:12;98078.38;;;9.07;55.50
84760;BME280;74983;51.084;11.086;2024-02-23T12:26:37;98074.66;;;9.10;55.98
84760;BME280;74983;51.084;11.086;2024-02-23T12:29:03;98074.56;;;9.02;55.55
84760;BME280;74983;51.084;11.086;2024-02-23T12:31:31;98074.00;;;9.08;55.28
84760;BME280;74983;51.084;11.086;2024-02-23T12:33:57;98069.44;;;9.10;55.38
84760;BME280;74983;51.084;11.086;2024-02-23T12:36:23;98078.16;;;9.01;56.55
84760;BME280;74983;51.084;11.086;2024-02-23T12:38:48;98080.22;;;8.97;57.27
84760;BME280;74983;51.084;11.086;2024-02-23T12:41:14;98070.22;;;9.02;54.24
84760;BME280;74983;51.084;11.086;2024-02-23T12:43:39;98071.03;;;9.03;56.01
84760;BME280;74983;51.084;11.086;2024-02-23T12:46:04;98063.66;;;8.98;55.52
84760;BME280;74983;51.084;11.086;2024-02-23T12:48:31;98066.13;;;9.00;56.56
84760;BME280;74983;51.084;11.086;2024-02-23T12:50:57;98075.69;;;9.17;56.94
84760;BME280;74983;51.084;11.086;2024-02-23T12:53:40;98067.91;;;8.99;55.69